createdAt,value
2018-04-18T00:00:18.057Z,98193.45
2018-04-18T00:02:43.913Z,98195.20
2018-04-18T00:05:09.784Z,98197.38
2018-04-18T00:07:35.657Z,98202.92
2018-04-18T00:10:01.552Z,98201.72
2018-04-18T00:12:27.393Z,98204.24
2018-04-18T00:14:53.250Z,98201.67
2018-04-18T00:17:19.121Z,98198.46
2018-04-18T00:19:44.980Z,98206.98
2018-04-18T00:22:10.853Z,98213.58
2018-04-18T00:24:36.698Z,98222.95
2018-04-18T00:27:02.567Z,98217.61
2018-04-18T00:29:28.445Z,98217.28
2018-04-18T00:31:54.383Z,98224.34
2018-04-18T00:34:20.257Z,98222.09
2018-04-18T00:36:46.117Z,98217.83
2018-04-18T00:39:11.985Z,98222.95
2018-04-18T00:41:37.876Z,98225.39
2018-04-18T00:44:03.777Z,98228.19
2018-04-18T00:46:29.650Z,98225.63
2018-04-18T00:48:55.498Z,98228.83
2018-04-18T00:51:21.349Z,98227.92
2018-04-18T00:53:47.205Z,98229.62
2018-04-18T00:56:13.070Z,98234.34
2018-04-18T00:58:38.990Z,98241.30
2018-04-18T01:01:04.888Z,98228.66
2018-04-18T01:03:30.764Z,98225.30
2018-04-18T01:05:56.658Z,98239.93
2018-04-18T01:08:22.509Z,98240.17
2018-04-18T01:10:48.369Z,98234.77
2018-04-18T01:13:14.229Z,98237.16
2018-04-18T01:15:40.125Z,98238.63
2018-04-18T01:18:05.988Z,98237.69
2018-04-18T01:20:31.843Z,98244.38
2018-04-18T01:22:57.685Z,98234.93
2018-04-18T01:25:23.533Z,98238.11
2018-04-18T01:27:49.398Z,98244.72
2018-04-18T01:30:15.251Z,98242.84
2018-04-18T01:32:41.142Z,98248.77
2018-04-18T01:35:07.005Z,98248.02
2018-04-18T01:37:32.893Z,98251.02
2018-04-18T01:39:58.752Z,98247.06
2018-04-18T01:42:24.666Z,98247.70
2018-04-18T01:44:50.572Z,98253.50
2018-04-18T01:47:16.448Z,98259.16
2018-04-18T01:49:42.344Z,98263.22
2018-04-18T01:52:08.214Z,98258.74
2018-04-18T01:54:34.093Z,98257.39
2018-04-18T01:56:59.960Z,98256.47
2018-04-18T01:59:25.879Z,98249.94
2018-04-18T02:01:51.688Z,98255.05
2018-04-18T02:04:17.529Z,98249.25
2018-04-18T02:06:43.648Z,98254.40
2018-04-18T02:09:09.482Z,98259.92
2018-04-18T02:11:35.360Z,98259.34
2018-04-18T02:14:01.273Z,98257.52
2018-04-18T02:16:27.130Z,98262.70
2018-04-18T02:18:53.009Z,98253.88
2018-04-18T02:21:18.854Z,98257.45
2018-04-18T02:23:44.749Z,98259.42
2018-04-18T02:26:10.641Z,98270.40
2018-04-18T02:28:36.537Z,98265.16
2018-04-18T02:31:02.472Z,98263.50
2018-04-18T02:33:28.388Z,98270.48
2018-04-18T02:35:54.291Z,98270.88
2018-04-18T02:38:20.155Z,98276.88
2018-04-18T02:40:46.064Z,98276.17
2018-04-18T02:43:11.920Z,98273.64
2018-04-18T02:45:37.859Z,98269.81
2018-04-18T02:48:03.737Z,98273.25
2018-04-18T02:50:29.634Z,98275.17
2018-04-18T02:52:55.549Z,98273.69
2018-04-18T02:55:21.427Z,98272.32
2018-04-18T02:57:47.324Z,98272.41
2018-04-18T03:00:13.210Z,98276.34
2018-04-18T03:02:39.095Z,98283.38
2018-04-18T03:05:04.938Z,98280.22
2018-04-18T03:07:30.825Z,98276.36
2018-04-18T03:09:56.682Z,98277.02
2018-04-18T03:12:22.562Z,98282.19
2018-04-18T03:14:48.407Z,98278.39
2018-04-18T03:17:14.276Z,98273.11
2018-04-18T03:19:40.144Z,98268.77
2018-04-18T03:22:06.017Z,98264.69
2018-04-18T03:24:31.912Z,98267.55
2018-04-18T03:26:57.795Z,98242.88
2018-04-18T03:29:23.681Z,98278.00
2018-04-18T03:31:49.520Z,98285.39
2018-04-18T03:34:15.415Z,98276.43
2018-04-18T03:36:41.339Z,98280.58
2018-04-18T03:39:07.306Z,98275.81
2018-04-18T03:41:33.208Z,98275.77
2018-04-18T03:43:59.099Z,98279.76
2018-04-18T03:46:24.980Z,98281.30
2018-04-18T03:48:50.838Z,98284.94
2018-04-18T03:51:16.706Z,98286.21
2018-04-18T03:53:42.588Z,98287.52
2018-04-18T03:56:08.494Z,98292.56
2018-04-18T03:58:34.361Z,98291.61
2018-04-18T04:01:00.253Z,98300.64
2018-04-18T04:03:26.109Z,98292.73
2018-04-18T04:05:52.008Z,98296.48
2018-04-18T04:08:17.892Z,98294.64
2018-04-18T04:10:43.928Z,98303.46
2018-04-18T04:13:09.847Z,98305.53
2018-04-18T04:15:35.707Z,98295.43
2018-04-18T04:18:13.993Z,98302.53
2018-04-18T04:20:52.177Z,98301.07
2018-04-18T04:23:30.252Z,98308.61
2018-04-18T04:25:56.131Z,98304.54
2018-04-18T04:28:22.849Z,98308.27
2018-04-18T04:30:48.811Z,98306.95
2018-04-18T04:33:14.725Z,98310.83
2018-04-18T04:35:40.605Z,98312.16
2018-04-18T04:38:06.464Z,98311.95
2018-04-18T04:40:32.349Z,98307.68
2018-04-18T04:42:58.260Z,98313.46
2018-04-18T04:45:24.128Z,98318.16
2018-04-18T04:47:50.036Z,98324.73
2018-04-18T04:50:15.885Z,98330.95
2018-04-18T04:52:41.802Z,98325.28
2018-04-18T04:55:07.716Z,98336.11
2018-04-18T04:57:33.585Z,98341.98
2018-04-18T04:59:59.457Z,98341.81
2018-04-18T05:02:25.328Z,98344.91
2018-04-18T05:04:51.196Z,98345.28
2018-04-18T05:07:17.068Z,98341.69
2018-04-18T05:09:42.941Z,98347.61
2018-04-18T05:12:08.797Z,98349.12
2018-04-18T05:14:34.705Z,98355.98
2018-04-18T05:17:00.544Z,98357.70
2018-04-18T05:19:26.398Z,98362.27
2018-04-18T05:21:52.236Z,98368.41
2018-04-18T05:24:18.101Z,98371.17
2018-04-18T05:26:43.952Z,98376.70
2018-04-18T05:29:09.826Z,98374.57
2018-04-18T05:31:35.672Z,98375.73
2018-04-18T05:34:01.516Z,98375.22
2018-04-18T05:36:27.397Z,98380.39
2018-04-18T05:38:53.235Z,98380.20
2018-04-18T05:41:19.115Z,98388.69
2018-04-18T05:43:45.034Z,98396.06
2018-04-18T05:46:10.877Z,98394.36
2018-04-18T05:48:36.792Z,98398.30
2018-04-18T05:51:02.693Z,98393.92
2018-04-18T05:53:28.563Z,98396.13
2018-04-18T05:55:54.388Z,98396.53
2018-04-18T05:58:20.237Z,98406.63
2018-04-18T06:00:46.103Z,98400.52
2018-04-18T06:03:11.989Z,98397.25
2018-04-18T06:05:37.909Z,98392.89
2018-04-18T06:08:03.762Z,98393.91
2018-04-18T06:10:29.612Z,98391.97
2018-04-18T06:12:55.500Z,98393.60
2018-04-18T06:15:21.386Z,98396.70
2018-04-18T06:17:47.248Z,98394.94
2018-04-18T06:20:13.115Z,98398.59
2018-04-18T06:22:38.981Z,98402.63
2018-04-18T06:25:05.125Z,98390.16
2018-04-18T06:27:31.008Z,98400.36
2018-04-18T06:29:56.856Z,98407.17
2018-04-18T06:32:22.699Z,98408.81
2018-04-18T06:34:48.580Z,98404.80
2018-04-18T06:37:14.452Z,98410.86
2018-04-18T06:39:40.345Z,98408.87
2018-04-18T06:42:06.232Z,98411.14
2018-04-18T06:44:32.072Z,98409.57
2018-04-18T06:46:57.937Z,98410.38
2018-04-18T06:49:23.876Z,98413.47
2018-04-18T06:51:49.750Z,98410.77
2018-04-18T06:54:15.632Z,98408.94
2018-04-18T06:56:41.557Z,98415.44
2018-04-18T06:59:07.395Z,98414.34
2018-04-18T07:01:33.301Z,98416.13
2018-04-18T07:03:59.213Z,98414.41
2018-04-18T07:06:25.090Z,98414.78
2018-04-18T07:08:51.021Z,98423.14
2018-04-18T07:11:16.889Z,98423.36
2018-04-18T07:13:42.737Z,98420.98
2018-04-18T07:16:08.617Z,98426.27
2018-04-18T07:18:34.492Z,98425.45
2018-04-18T07:21:00.380Z,98420.61
2018-04-18T07:23:26.271Z,98416.42
2018-04-18T07:25:52.141Z,98423.54
2018-04-18T07:28:18.016Z,98427.05
2018-04-18T07:30:43.919Z,98428.61
2018-04-18T07:33:09.790Z,98429.88
2018-04-18T07:35:35.706Z,98432.45
2018-04-18T07:38:01.618Z,98444.55
2018-04-18T07:40:27.489Z,98439.11
2018-04-18T07:42:53.354Z,98436.45
2018-04-18T07:45:19.223Z,98434.62
2018-04-18T07:47:45.102Z,98438.48
2018-04-18T07:50:10.984Z,98440.39
2018-04-18T07:52:36.848Z,98443.72
2018-04-18T07:55:02.869Z,98444.79
2018-04-18T07:57:28.740Z,98439.31
2018-04-18T07:59:54.584Z,98444.49
2018-04-18T08:02:20.465Z,98438.59
2018-04-18T08:04:46.301Z,98450.86
2018-04-18T08:07:12.193Z,98440.78
2018-04-18T08:09:38.060Z,98442.45
2018-04-18T08:12:03.957Z,98438.77
2018-04-18T08:14:29.810Z,98440.67
2018-04-18T08:16:55.693Z,98442.53
2018-04-18T08:19:21.541Z,98439.33
2018-04-18T08:21:47.446Z,98440.13
2018-04-18T08:24:13.297Z,98435.64
2018-04-18T08:26:39.181Z,98443.90
2018-04-18T08:29:05.041Z,98442.48
2018-04-18T08:31:30.908Z,98447.14
2018-04-18T08:33:56.795Z,98445.58
2018-04-18T08:36:22.646Z,98443.69
2018-04-18T08:38:48.497Z,98442.44
2018-04-18T08:41:14.348Z,98442.95
2018-04-18T08:43:40.213Z,98442.66
2018-04-18T08:46:06.108Z,98447.42
2018-04-18T08:48:31.997Z,98441.59
2018-04-18T08:50:57.871Z,98447.41
2018-04-18T08:53:23.781Z,98444.84
2018-04-18T08:55:49.669Z,98444.78
2018-04-18T08:58:15.561Z,98444.70
2018-04-18T09:00:41.454Z,98443.16
2018-04-18T09:03:07.329Z,98441.22
2018-04-18T09:05:33.199Z,98440.66
2018-04-18T09:07:59.083Z,98444.42
2018-04-18T09:10:24.937Z,98442.23
2018-04-18T09:12:50.852Z,98436.89
2018-04-18T09:15:16.722Z,98436.81
2018-04-18T09:17:42.588Z,98443.30
2018-04-18T09:20:08.486Z,98440.65
2018-04-18T09:22:34.326Z,98441.90
2018-04-18T09:25:00.192Z,98442.02
2018-04-18T09:27:26.055Z,98437.56
2018-04-18T09:29:51.937Z,98438.61
2018-04-18T09:32:17.776Z,98438.86
2018-04-18T09:34:43.636Z,98443.95
2018-04-18T09:37:09.489Z,98445.69
2018-04-18T09:39:35.366Z,98444.13
2018-04-18T09:42:01.248Z,98441.27
2018-04-18T09:44:27.132Z,98436.73
2018-04-18T09:46:53.020Z,98432.77
2018-04-18T09:49:18.856Z,98427.78
2018-04-18T09:51:44.716Z,98430.34
2018-04-18T09:54:10.592Z,98431.69
2018-04-18T09:56:36.466Z,98427.95
2018-04-18T09:59:02.324Z,98434.29
2018-04-18T10:01:34.368Z,98432.39
2018-04-18T10:04:06.457Z,98422.36
2018-04-18T10:06:32.325Z,98421.93
2018-04-18T10:08:58.200Z,98422.92
2018-04-18T10:11:24.086Z,98432.00
2018-04-18T10:13:49.965Z,98427.34
2018-04-18T10:16:15.845Z,98424.70
2018-04-18T10:18:41.733Z,98427.44
2018-04-18T10:21:07.584Z,98429.60
2018-04-18T10:23:33.449Z,98430.39
2018-04-18T10:25:59.325Z,98424.27
2018-04-18T10:28:25.222Z,98421.96
2018-04-18T10:30:51.085Z,98416.73
2018-04-18T10:33:16.969Z,98422.63
2018-04-18T10:35:42.821Z,98423.50
2018-04-18T10:38:08.756Z,98422.91
2018-04-18T10:40:34.601Z,98422.53
2018-04-18T10:43:00.485Z,98416.89
2018-04-18T10:45:26.368Z,98414.91
2018-04-18T10:47:52.261Z,98413.63
2018-04-18T10:50:18.144Z,98417.59
2018-04-18T10:52:44.020Z,98411.48
2018-04-18T10:55:09.916Z,98406.22
2018-04-18T10:57:35.788Z,98404.42
2018-04-18T11:00:01.658Z,98411.00
2018-04-18T11:02:27.557Z,98410.84
2018-04-18T11:04:53.425Z,98401.26
2018-04-18T11:07:19.314Z,98411.12
2018-04-18T11:09:45.186Z,98401.25
2018-04-18T11:12:11.086Z,98403.33
2018-04-18T11:14:36.957Z,98406.77
2018-04-18T11:17:02.816Z,98406.98
2018-04-18T11:19:28.661Z,98400.78
2018-04-18T11:21:54.526Z,98404.28
2018-04-18T11:24:20.389Z,98389.26
2018-04-18T11:26:46.287Z,98393.64
2018-04-18T11:29:12.164Z,98398.58
2018-04-18T11:31:38.026Z,98388.92
2018-04-18T11:34:03.906Z,98392.08
2018-04-18T11:36:29.775Z,98391.81
2018-04-18T11:38:55.647Z,98384.87
2018-04-18T11:41:21.528Z,98388.50
2018-04-18T11:43:47.410Z,98399.52
2018-04-18T11:46:13.292Z,98388.79
2018-04-18T11:48:39.177Z,98392.71
2018-04-18T11:51:05.025Z,98387.25
2018-04-18T11:53:30.842Z,98392.35
2018-04-18T11:55:56.681Z,98393.69
2018-04-18T11:58:22.548Z,98393.00
2018-04-18T12:00:48.421Z,98391.44
2018-04-18T12:03:14.262Z,98386.55
2018-04-18T12:05:40.167Z,98394.86
2018-04-18T12:08:06.017Z,98389.89
2018-04-18T12:10:31.898Z,98386.22
2018-04-18T12:12:57.741Z,98387.27
2018-04-18T12:15:23.609Z,98391.02
2018-04-18T12:17:49.472Z,98388.05
2018-04-18T12:20:15.313Z,98382.38
2018-04-18T12:22:41.456Z,98382.42
2018-04-18T12:25:07.320Z,98378.49
2018-04-18T12:27:33.211Z,98375.81
2018-04-18T12:29:59.057Z,98382.86
2018-04-18T12:32:24.928Z,98377.17
2018-04-18T12:34:50.813Z,98381.78
2018-04-18T12:37:16.676Z,98384.52
2018-04-18T12:39:42.492Z,98381.03
2018-04-18T12:42:08.352Z,98378.89
2018-04-18T12:44:34.208Z,98372.43
2018-04-18T12:47:00.078Z,98374.02
2018-04-18T12:49:25.924Z,98370.86
2018-04-18T12:51:51.784Z,98372.09
2018-04-18T12:54:17.642Z,98369.00
2018-04-18T12:56:43.480Z,98373.17
2018-04-18T12:59:09.320Z,98363.88
2018-04-18T13:01:35.165Z,98364.37
2018-04-18T13:04:01.013Z,98357.95
2018-04-18T13:06:26.899Z,98358.30
2018-04-18T13:08:52.763Z,98353.52
2018-04-18T13:11:18.601Z,98351.58
2018-04-18T13:13:44.452Z,98343.23
2018-04-18T13:16:10.309Z,98338.61
2018-04-18T13:18:36.209Z,98333.48
2018-04-18T13:21:02.065Z,98328.22
2018-04-18T13:23:27.964Z,98327.26
2018-04-18T13:25:53.856Z,98324.94
2018-04-18T13:28:19.815Z,98329.66
2018-04-18T13:30:45.669Z,98325.36
2018-04-18T13:33:11.506Z,98326.17
2018-04-18T13:35:37.377Z,98321.78
2018-04-18T13:38:03.265Z,98316.13
2018-04-18T13:40:29.184Z,98312.11
2018-04-18T13:42:55.032Z,98314.19
2018-04-18T13:45:20.901Z,98310.25
2018-04-18T13:47:46.818Z,98313.74
2018-04-18T13:50:12.688Z,98305.27
2018-04-18T13:52:38.556Z,98304.97
2018-04-18T13:55:04.792Z,98302.19
2018-04-18T13:57:30.689Z,98303.98
2018-04-18T13:59:56.533Z,98301.63
2018-04-18T14:02:22.398Z,98292.52
2018-04-18T14:04:48.250Z,98300.83
2018-04-18T14:07:14.116Z,98309.23
2018-04-18T14:09:39.955Z,98302.22
2018-04-18T14:12:05.803Z,98301.07
2018-04-18T14:14:31.704Z,98297.89
2018-04-18T14:16:57.625Z,98302.42
2018-04-18T14:19:23.505Z,98293.41
2018-04-18T14:21:49.406Z,98296.60
2018-04-18T14:24:15.271Z,98291.52
2018-04-18T14:26:41.188Z,98298.08
2018-04-18T14:29:07.001Z,98299.69
2018-04-18T14:31:32.876Z,98293.23
2018-04-18T14:33:58.864Z,98296.16
2018-04-18T14:36:24.708Z,98296.11
2018-04-18T14:38:50.624Z,98290.60
2018-04-18T14:41:16.542Z,98289.55
2018-04-18T14:43:42.417Z,98295.43
2018-04-18T14:46:08.287Z,98284.96
2018-04-18T14:48:34.125Z,98281.84
2018-04-18T14:51:00.007Z,98277.73
2018-04-18T14:53:25.850Z,98278.55
2018-04-18T14:55:51.716Z,98280.94
2018-04-18T14:58:17.632Z,98280.14
2018-04-18T15:00:43.512Z,98275.04
2018-04-18T15:03:09.350Z,98276.61
2018-04-18T15:05:35.228Z,98283.48
2018-04-18T15:08:01.133Z,98275.69
2018-04-18T15:10:27.061Z,98276.31
2018-04-18T15:12:52.974Z,98272.53
2018-04-18T15:15:18.869Z,98269.25
2018-04-18T15:17:44.770Z,98270.96
2018-04-18T15:20:10.636Z,98263.37
2018-04-18T15:22:36.509Z,98264.55
2018-04-18T15:25:02.398Z,98258.18
2018-04-18T15:27:28.328Z,98262.61
2018-04-18T15:29:54.188Z,98261.84
2018-04-18T15:32:20.066Z,98263.54
2018-04-18T15:34:45.913Z,98260.48
2018-04-18T15:37:11.821Z,98252.14
2018-04-18T15:39:37.706Z,98259.91
2018-04-18T15:42:03.584Z,98260.91
2018-04-18T15:44:29.449Z,98256.06
2018-04-18T15:46:55.333Z,98257.39
2018-04-18T15:49:21.186Z,98262.43
2018-04-18T15:51:47.037Z,98262.12
2018-04-18T15:54:12.913Z,98261.25
2018-04-18T15:56:38.862Z,98256.56
2018-04-18T15:59:04.745Z,98251.39
2018-04-18T16:01:30.905Z,98257.94
2018-04-18T16:03:56.749Z,98255.73
2018-04-18T16:06:22.612Z,98253.95
2018-04-18T16:08:48.471Z,98251.84
2018-04-18T16:11:14.333Z,98247.84
2018-04-18T16:13:40.489Z,98249.44
2018-04-18T16:16:06.420Z,98250.43
2018-04-18T16:18:32.271Z,98248.30
2018-04-18T16:20:58.173Z,98242.62
2018-04-18T16:23:24.004Z,98251.06
2018-04-18T16:25:50.728Z,98251.24
2018-04-18T16:28:16.579Z,98241.54
2018-04-18T16:30:42.477Z,98248.42
2018-04-18T16:33:15.191Z,98246.89
2018-04-18T16:35:41.030Z,98243.99
2018-04-18T16:38:06.863Z,98246.84
2018-04-18T16:40:32.748Z,98243.59
2018-04-18T16:42:58.685Z,98244.72
2018-04-18T16:45:24.588Z,98241.03
2018-04-18T16:47:51.253Z,98237.79
2018-04-18T16:50:17.146Z,98228.28
2018-04-18T16:52:43.017Z,98230.68
2018-04-18T16:55:08.861Z,98232.74
2018-04-18T16:57:34.746Z,98231.79
2018-04-18T17:00:00.621Z,98236.66
2018-04-18T17:02:26.501Z,98234.26
2018-04-18T17:04:52.356Z,98231.88
2018-04-18T17:07:18.225Z,98235.35
2018-04-18T17:09:44.045Z,98233.61
2018-04-18T17:12:09.934Z,98235.39
2018-04-18T17:14:35.845Z,98229.98
2018-04-18T17:17:01.737Z,98233.86
2018-04-18T17:19:27.592Z,98226.34
2018-04-18T17:21:53.462Z,98222.24
2018-04-18T17:24:19.375Z,98227.84
2018-04-18T17:26:45.245Z,98233.14
2018-04-18T17:29:11.061Z,98223.69
2018-04-18T17:31:37.116Z,98231.50
2018-04-18T17:34:03.036Z,98230.66
2018-04-18T17:36:28.941Z,98235.55
2018-04-18T17:38:54.773Z,98229.59
2018-04-18T17:41:20.605Z,98231.15
2018-04-18T17:43:46.446Z,98235.77
2018-04-18T17:46:12.368Z,98234.25
2018-04-18T17:48:38.311Z,98237.22
2018-04-18T17:51:04.184Z,98245.12
2018-04-18T17:53:30.056Z,98236.47
2018-04-18T17:55:55.940Z,98242.39
2018-04-18T17:58:21.828Z,98245.69
2018-04-18T18:00:47.713Z,98245.98
2018-04-18T18:03:13.573Z,98245.50
2018-04-18T18:05:39.502Z,98240.97
2018-04-18T18:08:05.410Z,98243.68
2018-04-18T18:10:31.418Z,98243.09
2018-04-18T18:12:57.312Z,98243.41
2018-04-18T18:15:23.185Z,98244.64
2018-04-18T18:17:49.063Z,98245.56
2018-04-18T18:20:14.969Z,98247.14
2018-04-18T18:22:40.848Z,98243.62
2018-04-18T18:25:06.776Z,98252.61
2018-04-18T18:27:32.687Z,98250.88
2018-04-18T18:29:58.547Z,98255.66
2018-04-18T18:32:24.413Z,98246.35
2018-04-18T18:34:50.309Z,98246.05
2018-04-18T18:37:16.173Z,98253.41
2018-04-18T18:39:42.080Z,98255.41
2018-04-18T18:42:08.005Z,98257.73
2018-04-18T18:44:33.888Z,98261.98
2018-04-18T18:46:59.772Z,98268.97
2018-04-18T18:49:25.861Z,98269.37
2018-04-18T18:51:51.792Z,98267.48
2018-04-18T18:54:17.771Z,98267.33
2018-04-18T18:56:43.694Z,98266.66
2018-04-18T18:59:09.564Z,98272.61
2018-04-18T19:01:35.448Z,98277.05
2018-04-18T19:04:01.316Z,98284.87
2018-04-18T19:06:27.221Z,98280.93
2018-04-18T19:08:53.094Z,98279.70
2018-04-18T19:11:19.029Z,98277.98
2018-04-18T19:13:44.908Z,98288.78
2018-04-18T19:16:10.786Z,98289.01
2018-04-18T19:18:36.658Z,98292.50
2018-04-18T19:21:02.533Z,98288.01
2018-04-18T19:23:28.424Z,98288.64
2018-04-18T19:25:54.353Z,98273.41
2018-04-18T19:28:20.317Z,98287.13
2018-04-18T19:30:46.221Z,98288.98
2018-04-18T19:33:12.092Z,98291.33
2018-04-18T19:35:37.945Z,98290.81
2018-04-18T19:38:03.813Z,98298.00
2018-04-18T19:40:29.706Z,98301.52
2018-04-18T19:42:55.586Z,98305.03
2018-04-18T19:45:21.465Z,98304.09
2018-04-18T19:47:47.332Z,98295.58
2018-04-18T19:50:13.268Z,98297.64
2018-04-18T19:52:39.108Z,98298.44
2018-04-18T19:55:05.088Z,98295.11
2018-04-18T19:57:30.969Z,98298.48
2018-04-18T19:59:56.860Z,98304.46
2018-04-18T20:02:22.758Z,98305.16
2018-04-18T20:04:48.675Z,98299.08
2018-04-18T20:07:14.588Z,98297.81
2018-04-18T20:09:40.505Z,98296.53
2018-04-18T20:12:06.370Z,98300.66
2018-04-18T20:14:32.244Z,98300.60
2018-04-18T20:16:58.192Z,98298.94
2018-04-18T20:19:24.096Z,98302.18
2018-04-18T20:21:50.005Z,98300.35
2018-04-18T20:24:15.905Z,98302.49
2018-04-18T20:26:41.807Z,98302.05
2018-04-18T20:29:07.716Z,98298.11
2018-04-18T20:31:33.549Z,98299.69
2018-04-18T20:33:59.468Z,98303.48
2018-04-18T20:36:25.364Z,98305.95
2018-04-18T20:38:51.220Z,98293.78
2018-04-18T20:41:17.087Z,98299.20
2018-04-18T20:43:42.937Z,98301.23
2018-04-18T20:46:08.805Z,98300.05
2018-04-18T20:48:34.650Z,98301.33
2018-04-18T20:51:00.504Z,98299.09
2018-04-18T20:53:26.356Z,98301.15
2018-04-18T20:55:52.201Z,98306.68
2018-04-18T20:58:18.076Z,98305.78
2018-04-18T21:00:43.925Z,98302.83
2018-04-18T21:03:09.790Z,98303.06
2018-04-18T21:05:35.938Z,98311.78
2018-04-18T21:08:01.817Z,98307.78
2018-04-18T21:10:27.660Z,98314.93
2018-04-18T21:12:53.516Z,98320.83
2018-04-18T21:15:19.389Z,98313.88
2018-04-18T21:17:45.245Z,98315.63
2018-04-18T21:20:11.183Z,98319.01
2018-04-18T21:22:37.011Z,98317.05
2018-04-18T21:25:03.157Z,98314.73
2018-04-18T21:27:29.011Z,98317.77
2018-04-18T21:29:54.855Z,98313.03
2018-04-18T21:32:20.736Z,98319.02
2018-04-18T21:34:46.593Z,98315.75
2018-04-18T21:37:12.475Z,98314.66
2018-04-18T21:39:38.332Z,98320.66
2018-04-18T21:42:04.225Z,98319.02
2018-04-18T21:44:30.104Z,98320.11
2018-04-18T21:46:55.968Z,98319.53
2018-04-18T21:49:21.824Z,98312.17
2018-04-18T21:51:47.696Z,98318.48
2018-04-18T21:54:13.527Z,98317.40
2018-04-18T21:56:39.378Z,98316.46
2018-04-18T21:59:05.225Z,98309.82
2018-04-18T22:01:31.066Z,98316.61
2018-04-18T22:03:56.933Z,98314.32
2018-04-18T22:06:22.804Z,98318.18
2018-04-18T22:08:48.684Z,98310.14
2018-04-18T22:11:14.520Z,98315.45
2018-04-18T22:13:40.367Z,98314.22
2018-04-18T22:16:06.246Z,98322.45
2018-04-18T22:18:32.118Z,98320.22
2018-04-18T22:20:57.959Z,98319.97
2018-04-18T22:23:23.805Z,98315.43
2018-04-18T22:25:49.656Z,98320.14
2018-04-18T22:28:15.516Z,98321.72
2018-04-18T22:30:41.388Z,98319.00
2018-04-18T22:33:07.265Z,98323.14
2018-04-18T22:35:33.112Z,98325.09
2018-04-18T22:37:58.965Z,98326.13
2018-04-18T22:40:24.829Z,98329.86
2018-04-18T22:42:50.701Z,98327.79
2018-04-18T22:45:16.556Z,98328.17
2018-04-18T22:47:42.413Z,98327.78
2018-04-18T22:50:08.255Z,98330.50
2018-04-18T22:52:34.110Z,98328.58
2018-04-18T22:54:59.994Z,98328.79
2018-04-18T22:57:25.868Z,98331.23
2018-04-18T22:59:51.697Z,98320.62
2018-04-18T23:02:17.579Z,98321.34
2018-04-18T23:04:43.452Z,98325.58
2018-04-18T23:07:09.349Z,98325.50
2018-04-18T23:09:35.199Z,98328.15
2018-04-18T23:12:01.053Z,98329.19
2018-04-18T23:14:26.904Z,98328.52
2018-04-18T23:16:52.752Z,98327.03
2018-04-18T23:19:18.610Z,98328.25
2018-04-18T23:21:44.448Z,98329.52
2018-04-18T23:24:10.329Z,98321.71
2018-04-18T23:26:36.166Z,98322.39
2018-04-18T23:29:02.037Z,98327.62
2018-04-18T23:31:27.887Z,98323.33
2018-04-18T23:33:53.733Z,98325.72
2018-04-18T23:36:19.585Z,98325.02
2018-04-18T23:38:45.420Z,98321.99
2018-04-18T23:41:11.292Z,98319.47
2018-04-18T23:43:37.200Z,98317.36
2018-04-18T23:46:03.035Z,98319.08
2018-04-18T23:48:28.868Z,98314.14
2018-04-18T23:50:54.709Z,98314.70
2018-04-18T23:53:20.545Z,98317.02
2018-04-18T23:55:46.408Z,98315.66
2018-04-18T23:58:12.596Z,98314.64
